Aeroporto :
LOGIN :

Iscrizione | Disclaimer

   EN    FR    IT 

 










Sommario :    VFR   VFR Marginale   IFR   IFR Intensivo   IFR Molto Intensivo
Visibilità : 
Base nubi : 
>= 8 km
>= 3000ft
5 / 8 km
1000 / 3000 ft
1500m / 5 km
500 / 1000 ft
800 / 1500m
200 / 500 ft
< 800m
< 200 ft
Simboli :   Temporali  Nebbia  Neve Forte  Precipitazioni Forti  Vento > 20 kt
SIGMETs :   Varie  Temporali  Ghiacco  Turbolenza  Onda orograficha  Ceneri Vulcaniche






- Altitudine del aeroporto : 436 ft
- Codice IATA : BTS


LZIB - Bratislava

ULTIMO METAR :
  • 161100Z 31014KT 9999 FEW045 30/19 Q1012 NOSIG

METARs OBSOLETI :
  • 161030Z 28013KT 250V310 9999 FEW045 30/19 Q1012 NOSIG
  • 161000Z 28014KT 9999 FEW042 30/18 Q1012 NOSIG
  • 160930Z 29011KT 250V340 9999 FEW040 30/19 Q1012 NOSIG
  • 160900Z 27010KT 240V320 CAVOK 29/19 Q1012 NOSIG
  • 160830Z 27009KT 240V310 CAVOK 29/19 Q1012 NOSIG
  • 160800Z 27009KT 240V300 CAVOK 28/19 Q1012 NOSIG
  • 160730Z 29008KT CAVOK 28/19 Q1012 NOSIG
  • 160700Z 28009KT 250V330 9999 FEW049 27/19 Q1012 NOSIG
  • 160630Z 31004KT 280V340 CAVOK 26/19 Q1012 NOSIG

TAF TAF LZIB
Valido dal 16 a 12 ore il 17 a 12 ore UTC


161115Z 1612/1712 28011KT CAVOK
BECMG 1619/1621 34007KT



MetMap, La meteo Aeronautica in un colpo d'occhio ! - Copyright ORBIFLY Dicembre 2007 - Disclaimer

ORBIFLY MET'MAP TEAM :

Programmazione e sviluppo : Alexandra Zaïnal
Concezione : Baudouin d'Aumeries
Supporto tecnico e logistico : Manuel Goepfert
Aiuto : Marc-Olivier Méhu
Aiuto per la traduzione : Arnaldo La Scala




FONTI E CREDITI :

   NOAA